createdAt,value
2018-08-16T00:00:27.065Z,91.72
2018-08-16T00:01:27.039Z,92.48
2018-08-16T00:02:27.039Z,92.68
2018-08-16T00:03:27.030Z,92.86
2018-08-16T00:04:27.028Z,93.49
2018-08-16T00:05:27.028Z,94.45
2018-08-16T00:06:27.031Z,94.64
2018-08-16T00:07:27.024Z,94.35
2018-08-16T00:08:27.025Z,94.93
2018-08-16T00:09:27.015Z,94.98
2018-08-16T00:10:27.003Z,94.35
2018-08-16T00:11:27.004Z,94.74
2018-08-16T00:12:27.009Z,94.50
2018-08-16T00:13:27.009Z,95.17
2018-08-16T00:14:27.006Z,94.89
2018-08-16T00:15:27.004Z,94.69
2018-08-16T00:16:26.990Z,95.17
2018-08-16T00:17:27.001Z,95.36
2018-08-16T00:18:26.997Z,94.98
2018-08-16T00:19:26.994Z,94.93
2018-08-16T00:20:26.983Z,95.46
2018-08-16T00:21:26.993Z,95.65
2018-08-16T00:22:26.984Z,95.46
2018-08-16T00:23:26.971Z,95.41
2018-08-16T00:24:26.973Z,94.84
2018-08-16T00:25:26.972Z,94.64
2018-08-16T00:26:26.981Z,94.17
2018-08-16T00:27:26.966Z,94.54
2018-08-16T00:28:26.966Z,95.21
2018-08-16T00:29:26.962Z,94.93
2018-08-16T00:30:26.955Z,94.64
2018-08-16T00:31:26.956Z,95.21
2018-08-16T00:32:26.953Z,94.84
2018-08-16T00:33:26.955Z,94.93
2018-08-16T00:34:26.934Z,94.98
2018-08-16T00:35:26.942Z,95.36
2018-08-16T00:36:26.947Z,95.36
2018-08-16T00:37:26.932Z,95.17
2018-08-16T00:38:26.969Z,95.26
2018-08-16T00:39:26.935Z,95.56
2018-08-16T00:40:26.927Z,95.07
2018-08-16T00:41:26.928Z,94.84
2018-08-16T00:42:26.917Z,95.03
2018-08-16T00:43:26.916Z,95.26
2018-08-16T00:44:26.920Z,95.12
2018-08-16T00:45:26.919Z,95.41
2018-08-16T00:46:26.916Z,95.46
2018-08-16T00:47:26.913Z,95.26
2018-08-16T00:48:27.019Z,95.94
2018-08-16T00:49:26.915Z,96.32
2018-08-16T00:50:26.903Z,96.51
2018-08-16T00:51:26.900Z,96.51
2018-08-16T00:52:26.885Z,96.70
2018-08-16T00:53:26.883Z,96.80
2018-08-16T00:54:26.896Z,97.38
2018-08-16T00:55:26.878Z,97.52
2018-08-16T00:56:26.877Z,97.90
2018-08-16T00:57:26.881Z,97.90
2018-08-16T00:58:26.880Z,97.42
2018-08-16T00:59:26.875Z,97.80
2018-08-16T01:00:26.874Z,97.09
2018-08-16T01:01:26.943Z,97.80
2018-08-16T01:02:26.948Z,97.80
2018-08-16T01:03:26.858Z,97.90
2018-08-16T01:04:26.865Z,98.00
2018-08-16T01:05:26.859Z,98.47
2018-08-16T01:06:26.858Z,98.19
2018-08-16T01:07:26.842Z,98.67
2018-08-16T01:08:26.852Z,99.15
2018-08-16T01:09:26.838Z,99.15
2018-08-16T01:10:26.844Z,99.24
2018-08-16T01:11:26.851Z,99.72
2018-08-16T01:12:26.839Z,99.91
2018-08-16T01:13:26.829Z,99.72
2018-08-16T01:14:26.832Z,99.63
2018-08-16T01:15:26.820Z,99.99
2018-08-16T01:16:26.820Z,99.99
2018-08-16T01:17:26.819Z,99.99
2018-08-16T01:18:26.819Z,99.87
2018-08-16T01:19:26.824Z,99.99
2018-08-16T01:20:26.811Z,99.87
2018-08-16T01:21:26.814Z,99.96
2018-08-16T01:22:26.797Z,99.99
2018-08-16T01:23:26.804Z,99.99
2018-08-16T01:24:26.795Z,99.72
2018-08-16T01:25:26.788Z,99.99
2018-08-16T01:26:26.796Z,99.96
2018-08-16T01:27:26.795Z,99.72
2018-08-16T01:28:26.793Z,99.87
2018-08-16T01:29:26.780Z,99.87
2018-08-16T01:30:26.772Z,99.77
2018-08-16T02:04:57.994Z,99.99
2018-08-16T02:05:57.961Z,99.99
2018-08-16T02:06:57.948Z,99.99
2018-08-16T02:07:57.936Z,99.99
2018-08-16T02:08:57.931Z,99.99
2018-08-16T02:09:57.925Z,99.99
2018-08-16T02:10:57.923Z,99.99
2018-08-16T02:11:57.922Z,99.99
2018-08-16T02:12:57.911Z,99.99
2018-08-16T02:13:57.915Z,99.99
2018-08-16T02:14:57.895Z,99.99
2018-08-16T02:15:57.891Z,99.99
2018-08-16T02:16:57.888Z,99.99
2018-08-16T02:17:57.888Z,99.99
2018-08-16T02:18:57.884Z,99.99
2018-08-16T02:19:57.893Z,99.99
2018-08-16T02:20:57.872Z,99.99
2018-08-16T02:21:57.870Z,99.99
2018-08-16T02:22:57.852Z,99.99
2018-08-16T02:23:57.862Z,99.99
2018-08-16T02:24:57.862Z,99.99
2018-08-16T02:25:57.855Z,99.99
2018-08-16T02:26:57.845Z,99.99
2018-08-16T02:27:57.832Z,99.99
2018-08-16T02:28:57.839Z,99.99
2018-08-16T02:29:57.845Z,99.99
2018-08-16T02:30:57.826Z,99.99
2018-08-16T02:31:57.831Z,99.99
2018-08-16T02:32:57.825Z,99.99
2018-08-16T02:33:57.821Z,99.99
2018-08-16T02:34:57.834Z,99.99
2018-08-16T02:35:57.822Z,99.99
2018-08-16T02:36:57.816Z,99.99
2018-08-16T02:37:57.812Z,99.99
2018-08-16T02:38:57.809Z,99.99
2018-08-16T02:39:57.811Z,99.99
2018-08-16T02:40:57.789Z,99.99
2018-08-16T02:41:57.798Z,99.99
2018-08-16T02:42:57.789Z,99.99
2018-08-16T02:43:57.793Z,99.99
2018-08-16T02:44:57.785Z,99.99
2018-08-16T02:45:57.790Z,99.99
2018-08-16T02:46:57.781Z,99.99
2018-08-16T02:47:57.773Z,99.99
2018-08-16T02:48:57.768Z,99.99
2018-08-16T02:49:57.777Z,99.99
2018-08-16T02:50:57.803Z,99.99
2018-08-16T02:51:57.763Z,99.99
2018-08-16T02:52:57.762Z,99.99
2018-08-16T02:53:57.761Z,99.99
2018-08-16T02:54:58.225Z,99.99
2018-08-16T02:55:57.754Z,99.99
2018-08-16T02:56:57.750Z,99.99
2018-08-16T02:57:57.748Z,99.99
2018-08-16T02:58:57.746Z,99.99
2018-08-16T02:59:57.746Z,99.99
2018-08-16T03:00:57.729Z,99.99
2018-08-16T03:01:57.742Z,99.99
2018-08-16T03:02:57.730Z,99.99
2018-08-16T03:03:57.730Z,99.99
2018-08-16T03:04:57.729Z,99.99
2018-08-16T03:05:57.747Z,99.99
2018-08-16T03:06:57.720Z,99.99
2018-08-16T03:07:57.718Z,99.99
2018-08-16T03:08:57.708Z,99.99
2018-08-16T03:09:57.710Z,99.99
2018-08-16T03:10:57.711Z,99.99
2018-08-16T03:11:57.697Z,99.99
2018-08-16T03:12:57.705Z,99.99
2018-08-16T03:13:57.696Z,99.99
2018-08-16T03:14:57.709Z,99.99
2018-08-16T03:15:57.684Z,99.99
2018-08-16T03:16:57.684Z,99.99
2018-08-16T03:17:57.679Z,99.99
2018-08-16T03:18:57.678Z,99.99
2018-08-16T03:19:57.680Z,99.99
2018-08-16T03:20:57.668Z,99.99
2018-08-16T03:21:57.668Z,99.99
2018-08-16T03:22:57.669Z,99.99
2018-08-16T03:23:57.664Z,99.99
2018-08-16T03:24:57.655Z,99.99
2018-08-16T03:25:57.654Z,99.99
2018-08-16T03:26:57.655Z,99.99
2018-08-16T03:27:57.647Z,99.99
2018-08-16T03:28:57.648Z,99.99
2018-08-16T03:29:57.643Z,99.99
2018-08-16T03:30:57.631Z,99.99
2018-08-16T03:31:57.640Z,99.99
2018-08-16T03:32:57.638Z,99.99
2018-08-16T03:33:57.631Z,99.99
2018-08-16T03:34:57.623Z,99.99
2018-08-16T03:35:57.639Z,99.99
2018-08-16T03:36:57.619Z,99.99
2018-08-16T03:37:57.610Z,99.99
2018-08-16T03:38:57.604Z,99.99
2018-08-16T03:39:57.613Z,99.99
2018-08-16T03:40:57.612Z,99.99
2018-08-16T03:41:57.605Z,99.99
2018-08-16T03:42:57.603Z,99.99
2018-08-16T03:43:57.597Z,99.99
2018-08-16T03:44:57.595Z,99.99
2018-08-16T03:45:57.584Z,99.99
2018-08-16T03:46:57.578Z,99.99
2018-08-16T03:47:57.646Z,99.99
2018-08-16T03:48:57.585Z,99.99
2018-08-16T03:49:57.577Z,99.99
2018-08-16T03:50:57.579Z,99.99
2018-08-16T03:51:57.564Z,99.99
2018-08-16T03:52:57.559Z,99.99
2018-08-16T03:53:57.555Z,99.99
2018-08-16T03:54:57.562Z,99.99
2018-08-16T03:55:57.555Z,99.99
2018-08-16T03:56:57.551Z,99.99
2018-08-16T03:57:57.548Z,99.99
2018-08-16T03:58:57.546Z,99.99
2018-08-16T03:59:57.541Z,99.99
2018-08-16T04:00:57.527Z,99.99
2018-08-16T04:01:57.540Z,99.99
2018-08-16T04:02:57.530Z,99.99
2018-08-16T04:03:57.563Z,99.99
2018-08-16T04:04:57.534Z,99.99
2018-08-16T04:05:57.524Z,99.99
2018-08-16T04:06:57.515Z,99.99
2018-08-16T04:07:57.527Z,99.99
2018-08-16T04:08:57.513Z,99.99
2018-08-16T04:09:57.524Z,99.99
2018-08-16T04:10:57.497Z,99.99
2018-08-16T04:11:57.501Z,99.99
2018-08-16T04:12:57.510Z,99.99
2018-08-16T04:13:57.495Z,99.99
2018-08-16T04:14:57.502Z,99.99
2018-08-16T04:15:57.487Z,99.99
2018-08-16T04:16:57.480Z,99.99
2018-08-16T04:17:57.470Z,99.99
2018-08-16T04:18:57.478Z,99.99
2018-08-16T04:19:57.482Z,99.99
2018-08-16T04:20:57.467Z,99.99
2018-08-16T04:21:57.458Z,99.99
2018-08-16T04:22:57.479Z,99.99
2018-08-16T04:23:57.461Z,99.99
2018-08-16T04:24:57.452Z,99.99
2018-08-16T04:25:57.460Z,99.99
2018-08-16T04:26:57.460Z,99.99
2018-08-16T04:27:57.442Z,99.99
2018-08-16T04:28:57.468Z,99.99
2018-08-16T04:29:57.441Z,99.99
2018-08-16T04:30:57.429Z,99.99
2018-08-16T04:31:57.430Z,99.99
2018-08-16T04:32:57.430Z,99.99
2018-08-16T04:33:57.430Z,99.99
2018-08-16T04:34:57.437Z,99.99
2018-08-16T04:35:57.417Z,99.99
2018-08-16T04:36:57.419Z,99.99
2018-08-16T04:37:57.432Z,99.99
2018-08-16T04:38:57.402Z,99.99
2018-08-16T04:39:57.404Z,99.99
2018-08-16T04:40:57.397Z,99.99
2018-08-16T04:41:57.470Z,99.99
2018-08-16T04:42:57.402Z,99.99
2018-08-16T04:43:57.395Z,99.99
2018-08-16T04:44:57.390Z,99.99
2018-08-16T04:45:57.390Z,99.99
2018-08-16T04:46:57.393Z,99.99
2018-08-16T04:47:57.379Z,99.99
2018-08-16T04:48:57.381Z,99.99
2018-08-16T04:49:57.373Z,99.99
2018-08-16T04:50:57.359Z,99.99
2018-08-16T04:51:57.356Z,99.99
2018-08-16T04:52:57.362Z,99.99
2018-08-16T04:53:57.357Z,99.99
2018-08-16T04:54:57.357Z,99.99
2018-08-16T04:55:57.345Z,99.99
2018-08-16T04:56:57.375Z,99.99
2018-08-16T04:57:57.347Z,99.99
2018-08-16T04:58:57.339Z,99.99
2018-08-16T04:59:57.342Z,99.99
2018-08-16T05:00:57.340Z,99.99
2018-08-16T05:01:57.332Z,99.99
2018-08-16T05:02:57.331Z,99.99
2018-08-16T05:03:57.331Z,99.99
2018-08-16T05:04:57.320Z,99.99
2018-08-16T05:05:57.323Z,99.99
2018-08-16T05:06:57.322Z,99.99
2018-08-16T05:07:57.311Z,99.99
2018-08-16T05:08:57.308Z,99.99
2018-08-16T05:09:57.308Z,99.99
2018-08-16T05:10:57.302Z,99.99
2018-08-16T05:11:57.301Z,99.99
2018-08-16T05:12:57.313Z,99.99
2018-08-16T05:13:57.290Z,99.99
2018-08-16T05:14:57.295Z,99.99
2018-08-16T05:15:57.291Z,99.99
2018-08-16T05:16:57.291Z,99.99
2018-08-16T05:17:57.289Z,99.99
2018-08-16T05:18:57.283Z,99.99
2018-08-16T05:19:57.274Z,99.99
2018-08-16T05:20:57.312Z,99.99
2018-08-16T05:21:57.277Z,99.99
2018-08-16T05:22:57.273Z,99.99
2018-08-16T05:23:57.310Z,99.99
2018-08-16T05:24:57.269Z,99.99
2018-08-16T05:25:57.275Z,99.99
2018-08-16T05:26:57.268Z,99.99
2018-08-16T05:27:57.262Z,99.99
2018-08-16T05:28:57.256Z,99.99
2018-08-16T05:29:57.265Z,99.99
2018-08-16T05:30:57.273Z,99.99
2018-08-16T05:31:57.243Z,99.99
2018-08-16T05:32:57.237Z,99.99
2018-08-16T05:33:57.243Z,99.99
2018-08-16T05:34:57.234Z,99.99
2018-08-16T05:35:57.234Z,99.99
2018-08-16T05:36:57.231Z,99.99
2018-08-16T05:37:57.231Z,99.99
2018-08-16T05:38:57.232Z,99.99
2018-08-16T05:39:57.218Z,99.99
2018-08-16T05:40:57.233Z,99.99
2018-08-16T05:41:57.213Z,99.99
2018-08-16T05:42:57.273Z,99.99
2018-08-16T05:43:57.208Z,99.99
2018-08-16T05:44:57.210Z,99.99
2018-08-16T05:45:57.201Z,99.99
2018-08-16T05:46:57.207Z,99.99
2018-08-16T05:47:57.203Z,99.99
2018-08-16T05:48:57.210Z,99.99
2018-08-16T05:49:57.201Z,99.99
2018-08-16T05:50:57.230Z,99.99
2018-08-16T05:51:57.196Z,99.99
2018-08-16T05:52:57.190Z,99.99
2018-08-16T05:53:57.198Z,99.99
2018-08-16T05:54:57.197Z,99.99
2018-08-16T05:55:57.181Z,99.99
2018-08-16T05:56:57.185Z,99.99
2018-08-16T05:57:57.192Z,99.99
2018-08-16T05:58:57.182Z,99.99
2018-08-16T05:59:57.186Z,99.99
2018-08-16T06:00:57.181Z,99.99
2018-08-16T06:01:57.175Z,99.99
2018-08-16T06:02:57.191Z,99.99
2018-08-16T06:03:57.180Z,99.99
2018-08-16T06:04:57.181Z,99.73
2018-08-16T06:05:57.169Z,99.54
2018-08-16T06:06:57.173Z,99.99
2018-08-16T06:07:57.170Z,99.99
2018-08-16T06:08:57.170Z,99.20
2018-08-16T06:09:57.166Z,98.91
2018-08-16T06:10:57.164Z,98.82
2018-08-16T06:11:57.208Z,99.01
2018-08-16T06:12:57.169Z,99.40
2018-08-16T06:13:57.175Z,99.25
2018-08-16T06:14:57.157Z,99.15
2018-08-16T06:15:57.153Z,98.68
2018-08-16T06:16:57.158Z,97.91
2018-08-16T06:17:57.170Z,98.48
2018-08-16T06:18:57.160Z,98.68
2018-08-16T06:19:57.158Z,98.24
2018-08-16T06:20:57.172Z,98.24
2018-08-16T06:21:57.159Z,98.24
2018-08-16T06:22:57.156Z,99.30
2018-08-16T06:23:57.214Z,97.96
2018-08-16T06:24:57.160Z,97.62
2018-08-16T06:25:57.175Z,96.66
2018-08-16T06:26:57.152Z,95.89
2018-08-16T06:27:57.151Z,94.92
2018-08-16T06:28:57.160Z,95.45
2018-08-16T06:29:57.161Z,95.17
2018-08-16T06:30:57.158Z,95.50
2018-08-16T06:31:57.156Z,94.73
2018-08-16T06:32:57.152Z,94.97
2018-08-16T06:33:57.152Z,93.57
2018-08-16T06:34:57.172Z,93.81
2018-08-16T06:35:57.167Z,92.37
2018-08-16T06:36:57.150Z,93.57
2018-08-16T06:37:57.153Z,94.44
2018-08-16T06:38:57.257Z,94.34
2018-08-16T06:39:57.161Z,92.99
2018-08-16T06:40:57.172Z,90.78
2018-08-16T06:41:57.153Z,89.33
2018-08-16T06:42:57.155Z,91.93
2018-08-16T06:43:57.157Z,93.48
2018-08-16T06:44:57.154Z,91.06
2018-08-16T06:45:57.172Z,90.78
2018-08-16T06:46:57.158Z,90.78
2018-08-16T06:47:57.162Z,89.48
2018-08-16T06:48:57.163Z,90.73
2018-08-16T06:49:57.162Z,90.73
2018-08-16T06:50:57.181Z,89.91
2018-08-16T06:51:57.172Z,90.48
2018-08-16T06:52:57.163Z,90.20
2018-08-16T06:53:57.158Z,88.46
2018-08-16T06:54:57.173Z,86.54
2018-08-16T06:55:57.178Z,87.12
2018-08-16T06:56:57.166Z,88.65
2018-08-16T06:57:57.174Z,86.63
2018-08-16T06:58:57.187Z,85.96
2018-08-16T06:59:57.175Z,86.73
2018-08-16T07:00:57.197Z,86.73
2018-08-16T07:01:57.175Z,85.96
2018-08-16T07:02:57.180Z,86.58
2018-08-16T07:03:57.172Z,85.03
2018-08-16T07:04:57.219Z,85.91
2018-08-16T07:05:57.180Z,84.98
2018-08-16T07:06:57.189Z,83.83
2018-08-16T07:07:57.185Z,84.01
2018-08-16T07:08:57.186Z,83.44
2018-08-16T07:09:57.189Z,82.51
2018-08-16T07:10:57.185Z,81.59
2018-08-16T07:11:57.253Z,82.94
2018-08-16T07:12:57.198Z,81.67
2018-08-16T07:13:57.185Z,80.12
2018-08-16T07:14:57.204Z,81.19
2018-08-16T07:15:57.203Z,77.90
2018-08-16T07:16:57.202Z,78.99
2018-08-16T07:17:57.206Z,79.24
2018-08-16T07:18:57.208Z,80.64
2018-08-16T07:19:57.214Z,81.65
2018-08-16T07:20:57.231Z,81.88
2018-08-16T07:21:57.217Z,79.16
2018-08-16T07:22:57.215Z,77.59
2018-08-16T07:23:57.222Z,77.98
2018-08-16T07:24:57.212Z,76.72
2018-08-16T07:25:57.224Z,75.85
2018-08-16T07:26:57.219Z,74.59
2018-08-16T07:27:57.225Z,74.69
2018-08-16T07:28:57.233Z,76.79
2018-08-16T07:29:57.263Z,74.76
2018-08-16T07:30:57.234Z,72.96
2018-08-16T07:31:57.250Z,71.89
2018-08-16T07:32:57.255Z,72.34
2018-08-16T07:33:57.256Z,73.19
2018-08-16T07:34:57.270Z,71.22
2018-08-16T07:35:57.285Z,71.76
2018-08-16T07:36:57.281Z,72.41
2018-08-16T07:37:57.307Z,70.00
2018-08-16T07:38:57.297Z,67.21
2018-08-16T07:39:57.303Z,67.85
2018-08-16T07:40:57.320Z,68.79
2018-08-16T07:41:57.322Z,71.44
2018-08-16T07:42:57.328Z,71.06
2018-08-16T07:43:57.336Z,68.12
2018-08-16T07:44:57.355Z,68.02
2018-08-16T07:45:57.440Z,67.92
2018-08-16T07:46:57.388Z,67.66
2018-08-16T07:47:57.413Z,68.12
2018-08-16T07:48:57.440Z,67.21
2018-08-16T07:49:57.456Z,65.01
2018-08-16T07:50:58.102Z,65.85
2018-08-16T07:51:57.489Z,65.33
2018-08-16T07:52:58.821Z,64.36
2018-08-16T07:53:57.497Z,64.95
2018-08-16T07:54:57.737Z,65.89
2018-08-16T07:55:57.474Z,67.02
2018-08-16T07:56:57.521Z,66.79
2018-08-16T07:57:57.489Z,66.86
2018-08-16T07:58:57.501Z,63.65
2018-08-16T07:59:57.543Z,61.93
2018-08-16T08:00:57.530Z,62.51
2018-08-16T08:01:57.547Z,63.78
2018-08-16T08:02:57.557Z,62.74
2018-08-16T08:03:57.598Z,61.87
2018-08-16T08:04:57.874Z,61.57
2018-08-16T08:05:57.980Z,61.73
2018-08-16T08:06:59.127Z,61.51
2018-08-16T08:07:57.898Z,64.10
2018-08-16T08:08:57.962Z,61.27
2018-08-16T08:09:58.132Z,60.44
2018-08-16T08:10:58.107Z,61.31
2018-08-16T08:11:58.142Z,63.09
2018-08-16T08:12:58.038Z,61.89
2018-08-16T08:13:58.122Z,60.49
2018-08-16T08:14:57.916Z,57.91
2018-08-16T08:15:58.055Z,58.12
2018-08-16T08:16:57.734Z,60.13
2018-08-16T08:17:57.752Z,56.79
2018-08-16T08:18:57.768Z,55.28
2018-08-16T08:19:57.780Z,54.99
2018-08-16T08:20:57.789Z,54.23
2018-08-16T08:21:57.811Z,54.65
2018-08-16T08:22:57.813Z,54.33
2018-08-16T08:23:57.843Z,54.52
2018-08-16T08:24:57.849Z,54.46
2018-08-16T08:25:57.871Z,55.08
2018-08-16T08:26:57.877Z,56.51
2018-08-16T08:27:57.905Z,57.13
2018-08-16T08:28:57.910Z,56.51
2018-08-16T08:29:57.931Z,55.40
2018-08-16T08:30:57.942Z,55.91
2018-08-16T08:31:57.958Z,54.96
2018-08-16T08:32:57.975Z,54.50
2018-08-16T08:33:57.999Z,54.05
2018-08-16T08:34:58.000Z,54.83
2018-08-16T08:35:58.017Z,57.47
2018-08-16T08:36:58.041Z,59.23
2018-08-16T08:37:58.052Z,57.82
2018-08-16T08:38:58.124Z,58.50
2018-08-16T08:39:58.089Z,56.20
2018-08-16T08:40:58.088Z,54.33
2018-08-16T08:41:58.122Z,50.73
2018-08-16T08:42:58.130Z,52.17
2018-08-16T08:43:58.147Z,55.47
2018-08-16T08:44:58.161Z,53.96
2018-08-16T08:45:58.174Z,52.17
2018-08-16T08:46:58.195Z,52.40
2018-08-16T08:47:58.203Z,54.03
2018-08-16T08:48:58.222Z,53.57
2018-08-16T08:49:58.241Z,52.06
2018-08-16T08:50:58.264Z,51.03
2018-08-16T08:51:58.271Z,49.90
2018-08-16T08:52:58.291Z,48.43
2018-08-16T08:53:58.311Z,47.52
2018-08-16T08:54:58.326Z,47.96
2018-08-16T08:55:58.335Z,48.38
2018-08-16T08:56:58.364Z,50.44
2018-08-16T08:57:58.376Z,49.70
2018-08-16T08:58:58.392Z,50.68
2018-08-16T08:59:58.404Z,50.37
2018-08-16T09:00:58.419Z,50.37
2018-08-16T09:01:58.445Z,48.38
2018-08-16T09:02:58.462Z,47.40
2018-08-16T09:03:58.480Z,48.16
2018-08-16T09:04:58.500Z,47.79
2018-08-16T09:05:58.513Z,47.85
2018-08-16T09:06:58.576Z,47.85
2018-08-16T09:07:58.555Z,47.62
2018-08-16T09:08:58.567Z,47.33
2018-08-16T09:09:58.580Z,47.99
2018-08-16T09:10:58.602Z,50.29
2018-08-16T09:11:58.616Z,54.42
2018-08-16T09:12:58.639Z,51.76
2018-08-16T09:13:58.659Z,53.07
2018-08-16T09:14:58.742Z,54.83
2018-08-16T09:15:58.701Z,53.09
2018-08-16T09:16:58.697Z,52.88
2018-08-16T09:17:58.738Z,50.22
2018-08-16T09:18:58.758Z,50.32
2018-08-16T09:19:58.766Z,49.92
2018-08-16T09:20:58.784Z,47.86
2018-08-16T09:21:58.807Z,45.15
2018-08-16T09:22:58.829Z,45.10
2018-08-16T09:23:58.899Z,45.94
2018-08-16T09:24:58.859Z,46.36
2018-08-16T09:25:58.892Z,46.95
2018-08-16T09:26:58.910Z,47.05
2018-08-16T09:27:58.924Z,44.93
2018-08-16T09:28:58.940Z,46.20
2018-08-16T09:29:58.968Z,46.95
2018-08-16T09:30:58.979Z,45.14
2018-08-16T09:31:58.998Z,42.67
2018-08-16T09:32:59.029Z,42.00
2018-08-16T09:33:59.039Z,43.87
2018-08-16T09:34:59.065Z,44.01
2018-08-16T09:35:59.072Z,44.01
2018-08-16T09:36:59.102Z,47.66
2018-08-16T09:37:59.120Z,45.77
2018-08-16T09:38:59.142Z,45.30
2018-08-16T09:39:59.168Z,45.52
2018-08-16T09:40:59.173Z,44.15
2018-08-16T09:41:59.199Z,45.75
2018-08-16T09:42:59.224Z,47.96
2018-08-16T09:43:59.228Z,44.32
2018-08-16T09:44:59.260Z,44.36
2018-08-16T09:45:59.276Z,43.42
2018-08-16T09:46:59.299Z,42.46
2018-08-16T09:47:59.312Z,45.48
2018-08-16T09:48:59.335Z,47.52
2018-08-16T09:49:59.354Z,48.97
2018-08-16T09:50:59.370Z,48.65
2018-08-16T09:51:59.400Z,48.90
2018-08-16T09:52:59.409Z,50.22
2018-08-16T09:53:59.453Z,49.85
2018-08-16T09:54:59.436Z,47.72
2018-08-16T09:55:59.470Z,47.08
2018-08-16T09:56:59.487Z,47.91
2018-08-16T09:57:59.508Z,48.55
2018-08-16T09:58:59.519Z,47.62
2018-08-16T09:59:59.539Z,48.94
2018-08-16T10:00:59.564Z,47.37
2018-08-16T10:01:59.635Z,47.81
2018-08-16T10:02:59.610Z,49.19
2018-08-16T10:03:59.618Z,50.12
2018-08-16T10:04:59.635Z,49.43
2018-08-16T10:05:59.653Z,49.95
2018-08-16T10:06:59.669Z,49.65
2018-08-16T10:07:59.681Z,52.12
2018-08-16T10:08:59.707Z,51.78
2018-08-16T10:09:59.722Z,52.31
2018-08-16T10:10:59.747Z,51.90
2018-08-16T10:11:59.778Z,52.07
2018-08-16T10:12:59.782Z,54.77
2018-08-16T10:13:59.792Z,55.26
2018-08-16T10:14:59.807Z,54.14
2018-08-16T10:15:59.831Z,55.32
2018-08-16T10:16:59.848Z,53.39
2018-08-16T10:17:59.867Z,52.87
2018-08-16T10:18:59.879Z,52.90
2018-08-16T10:19:59.901Z,50.24
2018-08-16T10:20:59.948Z,51.29
2018-08-16T10:21:59.931Z,51.37
2018-08-16T10:22:59.951Z,50.04
2018-08-16T10:23:59.969Z,47.81
2018-08-16T10:24:59.983Z,48.41
2018-08-16T10:26:00.002Z,47.52
2018-08-16T10:27:00.057Z,45.15
2018-08-16T10:28:00.035Z,46.76
2018-08-16T10:29:00.058Z,48.16
2018-08-16T10:30:00.066Z,44.84
2018-08-16T10:31:00.077Z,47.64
2018-08-16T10:32:00.103Z,48.50
2018-08-16T10:33:00.120Z,48.82
2018-08-16T10:34:00.142Z,48.38
2018-08-16T10:35:00.159Z,50.59
2018-08-16T10:36:00.175Z,50.42
2018-08-16T10:37:00.191Z,48.99
2018-08-16T10:38:00.207Z,49.85
2018-08-16T10:39:00.213Z,48.41
2018-08-16T10:40:00.235Z,50.02
2018-08-16T10:41:00.260Z,49.68
2018-08-16T10:42:00.273Z,49.97
2018-08-16T10:43:00.288Z,50.32
2018-08-16T10:44:00.308Z,49.95
2018-08-16T10:45:00.330Z,49.04
2018-08-16T10:46:00.345Z,47.50
2018-08-16T10:47:00.378Z,48.07
2018-08-16T10:48:00.372Z,47.79
2018-08-16T10:49:00.394Z,50.61
2018-08-16T10:50:00.424Z,49.48
2018-08-16T10:51:00.434Z,50.93
2018-08-16T10:52:00.447Z,52.88
2018-08-16T10:53:00.472Z,50.24
2018-08-16T10:54:00.477Z,50.61
2018-08-16T10:55:00.502Z,51.00
2018-08-16T10:56:00.521Z,51.86
2018-08-16T10:57:00.532Z,51.81
2018-08-16T10:58:00.546Z,49.70
2018-08-16T10:59:00.558Z,50.20
2018-08-16T11:00:00.637Z,48.09
2018-08-16T11:01:00.606Z,48.28
2018-08-16T11:02:00.618Z,47.89
2018-08-16T11:03:00.629Z,50.05
2018-08-16T11:04:00.654Z,49.97
2018-08-16T11:05:00.656Z,49.36
2018-08-16T11:06:00.692Z,49.58
2018-08-16T11:07:00.703Z,51.61
2018-08-16T11:08:00.718Z,48.93
2018-08-16T11:09:00.735Z,50.12
2018-08-16T11:10:00.748Z,52.34
2018-08-16T11:11:00.770Z,50.12
2018-08-16T11:12:00.777Z,49.71
2018-08-16T11:13:00.799Z,49.63
2018-08-16T11:14:00.822Z,46.94
2018-08-16T11:15:00.852Z,48.92
2018-08-16T11:16:00.848Z,50.29
2018-08-16T11:17:00.860Z,50.20
2018-08-16T11:18:00.888Z,54.55
2018-08-16T11:19:00.999Z,47.16
2018-08-16T11:20:00.912Z,48.55
2018-08-16T11:21:00.942Z,48.26
2018-08-16T11:22:00.944Z,50.24
2018-08-16T11:23:00.957Z,47.77
2018-08-16T11:24:00.975Z,48.11
2018-08-16T11:25:00.994Z,48.38
2018-08-16T11:26:01.014Z,49.31
2018-08-16T11:27:01.033Z,47.60
2018-08-16T11:28:01.048Z,47.77
2018-08-16T11:29:01.060Z,49.92
2018-08-16T11:30:01.072Z,49.63
2018-08-16T11:31:01.090Z,48.16
2018-08-16T11:32:01.127Z,49.04
2018-08-16T11:33:01.122Z,48.65
2018-08-16T11:34:01.143Z,48.72
2018-08-16T11:35:01.173Z,47.14
2018-08-16T11:36:01.177Z,46.26
2018-08-16T11:37:01.187Z,45.79
2018-08-16T11:38:01.208Z,44.95
2018-08-16T11:39:01.231Z,43.82
2018-08-16T11:40:01.229Z,43.94
2018-08-16T11:41:01.266Z,44.88
2018-08-16T11:42:01.274Z,45.09
2018-08-16T11:43:01.291Z,44.58
2018-08-16T11:44:01.301Z,46.08
2018-08-16T11:45:01.327Z,47.06
2018-08-16T11:46:01.325Z,47.63
2018-08-16T11:47:01.354Z,46.06
2018-08-16T11:48:01.368Z,45.72
2018-08-16T11:49:01.382Z,45.76
2018-08-16T11:50:01.403Z,46.33
2018-08-16T11:51:01.420Z,48.58
2018-08-16T11:52:01.432Z,47.53
2018-08-16T11:53:01.450Z,47.28
2018-08-16T11:54:01.463Z,47.38
2018-08-16T11:55:01.483Z,46.43
2018-08-16T11:56:01.519Z,46.88
2018-08-16T11:57:01.524Z,47.36
2018-08-16T11:58:01.535Z,48.46
2018-08-16T11:59:01.552Z,46.41
2018-08-16T12:00:01.563Z,47.02
2018-08-16T12:01:01.588Z,48.97
2018-08-16T12:02:01.657Z,48.70
2018-08-16T12:03:01.612Z,47.38
2018-08-16T12:04:01.625Z,47.16
2018-08-16T12:05:01.642Z,50.12
2018-08-16T12:06:01.671Z,44.88
2018-08-16T12:07:01.680Z,45.98
2018-08-16T12:08:01.692Z,47.26
2018-08-16T12:09:01.706Z,46.36
2018-08-16T12:10:01.716Z,47.40
2018-08-16T12:11:01.738Z,44.66
2018-08-16T12:12:01.759Z,45.17
2018-08-16T12:13:01.780Z,44.02
2018-08-16T12:14:01.788Z,43.63
2018-08-16T12:15:01.833Z,43.52
2018-08-16T12:16:01.816Z,42.38
2018-08-16T12:17:01.836Z,40.95
2018-08-16T12:18:01.859Z,42.31
2018-08-16T12:19:01.867Z,43.41
2018-08-16T12:20:01.890Z,43.98
2018-08-16T12:21:01.968Z,42.11
2018-08-16T12:22:01.909Z,43.29
2018-08-16T12:23:01.932Z,45.23
2018-08-16T12:24:01.945Z,44.93
2018-08-16T12:25:01.984Z,47.65
2018-08-16T12:26:01.985Z,45.06
2018-08-16T12:27:01.988Z,46.06
2018-08-16T12:28:02.019Z,46.11
2018-08-16T12:29:02.062Z,47.61
2018-08-16T12:30:02.048Z,49.99
2018-08-16T12:31:02.058Z,51.75
2018-08-16T12:32:02.077Z,49.49
2018-08-16T12:33:02.089Z,50.16
2018-08-16T12:34:02.112Z,50.36
2018-08-16T12:35:02.207Z,50.46
2018-08-16T12:36:02.137Z,50.85
2018-08-16T12:37:02.147Z,50.56
2018-08-16T12:38:02.163Z,50.14
2018-08-16T12:39:02.161Z,51.09
2018-08-16T12:40:02.184Z,49.92
2018-08-16T12:41:02.255Z,53.33
2018-08-16T12:42:02.198Z,51.90
2018-08-16T12:43:02.210Z,49.37
2018-08-16T12:44:02.220Z,48.58
2018-08-16T12:45:02.238Z,49.24
2018-08-16T12:46:02.251Z,51.77
2018-08-16T12:47:02.254Z,51.39
2018-08-16T12:48:02.252Z,52.26
2018-08-16T12:49:02.260Z,50.58
2018-08-16T12:50:02.269Z,50.68
2018-08-16T12:51:02.292Z,52.16
2018-08-16T12:52:02.284Z,50.90
2018-08-16T12:53:02.293Z,51.41
2018-08-16T12:54:02.311Z,50.43
2018-08-16T12:55:02.315Z,52.16
2018-08-16T12:56:02.324Z,51.84
2018-08-16T12:57:02.336Z,51.43
2018-08-16T12:58:02.337Z,53.08
2018-08-16T12:59:02.332Z,53.25
2018-08-16T13:00:02.352Z,53.74
2018-08-16T13:01:02.350Z,54.61
2018-08-16T13:02:02.360Z,53.54
2018-08-16T13:03:02.367Z,53.16
2018-08-16T13:04:02.369Z,51.87
2018-08-16T13:05:02.383Z,51.87
2018-08-16T13:06:02.382Z,54.88
2018-08-16T13:07:02.385Z,54.97
2018-08-16T13:08:02.396Z,53.22
2018-08-16T13:09:02.422Z,52.74
2018-08-16T13:10:02.401Z,51.70
2018-08-16T13:11:02.418Z,53.35
2018-08-16T13:12:02.410Z,51.99
2018-08-16T13:13:02.413Z,53.08
2018-08-16T13:14:02.419Z,53.96
2018-08-16T13:15:02.444Z,52.96
2018-08-16T13:16:02.459Z,53.57
2018-08-16T13:17:02.438Z,53.96
2018-08-16T13:18:02.431Z,54.52
2018-08-16T13:19:02.450Z,55.10
2018-08-16T13:20:02.456Z,54.03
2018-08-16T13:21:02.451Z,53.35
2018-08-16T13:22:02.453Z,54.61
2018-08-16T13:23:02.467Z,55.19
2018-08-16T13:24:02.479Z,55.22
2018-08-16T13:25:02.473Z,54.44
2018-08-16T13:26:02.482Z,54.05